Time;durP1;ratioP1;P1;durP2;ratioP2;P2;SDS_P1;SDS_P2;PMS_P1;PMS_P2;Temp;Humidity;BMP_temperature;BMP_pressure;BME280_temperature;BME280_humidity;BME280_pressure;Samples;Min_cycle;Max_cycle;Signal;HPM_P1;HPM_P2
2023/12/21 00:01:39;;;;;;;15.27;3.23;;;11.40;99.90;;;;;;7298599;19;20290;-78
2023/12/21 00:04:06;;;;;;;16.03;2.97;;;11.40;99.90;;;;;;7307171;19;21016;-80
2023/12/21 00:06:32;;;;;;;15.97;2.47;;;11.30;99.90;;;;;;7295630;19;20202;-79
2023/12/21 00:08:58;;;;;;;15.20;3.00;;;11.40;99.90;;;;;;7282646;19;20189;-79
2023/12/21 00:11:24;;;;;;;20.23;2.93;;;11.30;99.90;;;;;;7286398;19;20187;-79
2023/12/21 00:13:50;;;;;;;20.13;2.93;;;11.40;99.90;;;;;;7284660;19;20192;-79
2023/12/21 00:16:16;;;;;;;18.73;2.90;;;11.50;99.90;;;;;;7307070;19;20209;-79
2023/12/21 00:18:42;;;;;;;16.17;2.80;;;11.60;99.90;;;;;;7283985;19;20526;-79
2023/12/21 00:21:08;;;;;;;16.93;3.23;;;11.60;99.90;;;;;;7282040;19;20199;-79
2023/12/21 00:23:34;;;;;;;16.30;2.80;;;11.60;99.90;;;;;;7285255;19;20224;-79
2023/12/21 00:26:00;;;;;;;16.13;2.90;;;11.60;99.90;;;;;;7283679;19;20199;-79
2023/12/21 00:28:26;;;;;;;14.10;2.60;;;11.60;99.90;;;;;;7281435;19;20556;-80
2023/12/21 00:30:52;;;;;;;19.30;3.00;;;11.60;99.90;;;;;;7281457;19;20221;-79
2023/12/21 00:33:17;;;;;;;20.40;2.80;;;11.70;99.90;;;;;;7287585;19;20187;-79
2023/12/21 00:35:43;;;;;;;18.90;2.80;;;11.60;99.90;;;;;;7303044;19;20251;-79
2023/12/21 00:38:09;;;;;;;14.73;2.93;;;11.60;99.90;;;;;;7289080;19;20212;-79
2023/12/21 00:40:35;;;;;;;19.20;3.00;;;11.50;99.90;;;;;;7293181;19;20240;-80
2023/12/21 00:43:01;;;;;;;17.17;2.60;;;11.50;99.90;;;;;;7283980;19;20220;-79
2023/12/21 00:45:26;;;;;;;13.73;2.70;;;11.40;99.90;;;;;;7279299;19;20195;-79
2023/12/21 00:47:52;;;;;;;18.57;3.50;;;11.40;99.90;;;;;;7281553;19;20202;-79
2023/12/21 00:50:18;;;;;;;23.40;3.77;;;11.30;99.90;;;;;;7284585;19;20188;-80
2023/12/21 00:52:44;;;;;;;19.73;2.83;;;11.20;99.90;;;;;;7305892;19;20194;-78
2023/12/21 00:55:09;;;;;;;25.37;3.97;;;11.30;99.90;;;;;;7283130;19;20225;-78
2023/12/21 00:57:35;;;;;;;24.27;3.50;;;11.30;99.90;;;;;;7284451;19;20554;-79
2023/12/21 01:00:01;;;;;;;19.27;3.17;;;11.30;99.90;;;;;;7279673;19;20185;-79
2023/12/21 01:02:27;;;;;;;27.43;3.07;;;11.40;99.90;;;;;;7281749;19;20187;-79
2023/12/21 01:04:52;;;;;;;18.00;3.67;;;11.30;99.90;;;;;;7283656;19;20187;-78
2023/12/21 01:07:18;;;;;;;18.30;3.60;;;11.30;99.90;;;;;;7282697;19;20198;-78
2023/12/21 01:09:44;;;;;;;19.60;3.47;;;11.30;99.90;;;;;;7304561;19;20202;-79
2023/12/21 01:12:10;;;;;;;20.70;3.03;;;11.20;99.90;;;;;;7284390;19;20184;-78
2023/12/21 01:14:36;;;;;;;20.30;4.13;;;11.30;99.90;;;;;;7279937;19;20200;-77
2023/12/21 01:17:02;;;;;;;22.20;3.40;;;11.20;99.90;;;;;;7279688;19;20564;-79
2023/12/21 01:19:27;;;;;;;18.23;3.23;;;11.10;99.90;;;;;;7278814;19;20216;-78
2023/12/21 01:21:53;;;;;;;21.93;3.50;;;11.20;99.90;;;;;;7284047;19;20561;-78
2023/12/21 01:24:19;;;;;;;21.93;4.23;;;11.20;99.90;;;;;;7282561;19;20220;-79
2023/12/21 01:26:45;;;;;;;18.40;3.37;;;11.20;99.90;;;;;;7301675;19;20324;-78
2023/12/21 01:29:11;;;;;;;23.80;4.07;;;11.30;99.90;;;;;;7281339;19;20188;-78
2023/12/21 01:31:37;;;;;;;22.93;3.10;;;11.40;99.90;;;;;;7283056;19;20260;-79
2023/12/21 01:34:05;;;;;;;21.60;3.63;;;11.40;99.90;;;;;;7281337;19;20202;-79
2023/12/21 01:36:31;;;;;;;23.70;3.40;;;11.40;99.90;;;;;;7283684;19;20197;-79
2023/12/21 01:38:57;;;;;;;23.53;3.70;;;11.40;99.90;;;;;;7280682;19;20198;-79
2023/12/21 01:41:23;;;;;;;22.40;3.87;;;11.40;99.90;;;;;;7278223;19;20828;-78
2023/12/21 01:43:50;;;;;;;19.23;3.67;;;11.50;99.90;;;;;;7279595;19;20534;-79
2023/12/21 01:46:16;;;;;;;30.73;3.67;;;11.40;99.90;;;;;;7302083;19;20181;-79
2023/12/21 01:48:42;;;;;;;25.87;4.00;;;11.30;99.90;;;;;;7279660;19;20192;-79
2023/12/21 01:51:11;;;;;;;21.70;3.87;;;11.30;99.90;;;;;;7279287;19;20231;-79
2023/12/21 01:53:39;;;;;;;22.07;3.90;;;11.30;99.90;;;;;;7279801;19;20232;-78
2023/12/21 01:56:06;;;;;;;22.97;3.77;;;11.30;99.90;;;;;;7280944;19;20286;-79
2023/12/21 01:58:32;;;;;;;21.40;3.37;;;11.40;99.90;;;;;;7282871;19;20561;-78
2023/12/21 02:00:58;;;;;;;27.50;3.77;;;11.40;99.90;;;;;;7291196;19;20210;-79
2023/12/21 02:03:28;;;;;;;22.93;3.60;;;11.40;99.90;;;;;;7294295;19;20188;-78
2023/12/21 02:05:53;;;;;;;29.90;4.23;;;11.50;99.90;;;;;;7290361;19;20200;-79
2023/12/21 02:08:19;;;;;;;33.07;4.97;;;11.50;99.90;;;;;;7290086;19;20203;-79
2023/12/21 02:10:46;;;;;;;24.07;4.63;;;11.50;99.90;;;;;;7310776;19;20629;-79
2023/12/21 02:13:12;;;;;;;26.03;3.83;;;11.50;99.90;;;;;;7289925;19;20196;-79
2023/12/21 02:15:38;;;;;;;27.50;4.37;;;11.50;99.90;;;;;;7288537;19;20185;-79
2023/12/21 02:18:06;;;;;;;31.17;5.03;;;11.50;99.90;;;;;;7285095;19;20182;-79
2023/12/21 02:20:32;;;;;;;28.90;4.50;;;11.40;99.90;;;;;;7282782;19;20663;-79
2023/12/21 02:23:03;;;;;;;22.93;4.20;;;11.40;99.90;;;;;;7283043;19;20208;-79
2023/12/21 02:25:30;;;;;;;27.13;4.60;;;11.30;99.90;;;;;;7283017;19;20206;-80
2023/12/21 02:27:58;;;;;;;29.37;4.37;;;11.30;99.90;;;;;;7286540;19;20184;-79
2023/12/21 02:30:23;;;;;;;25.93;4.87;;;11.30;99.90;;;;;;7287445;19;20187;-79
2023/12/21 02:32:49;;;;;;;30.67;5.40;;;11.20;99.90;;;;;;7290706;19;20195;-79
2023/12/21 02:35:15;;;;;;;38.57;5.50;;;11.10;99.90;;;;;;7311964;19;20258;-80
2023/12/21 02:37:41;;;;;;;30.13;4.97;;;11.30;99.90;;;;;;7288421;19;20603;-79
2023/12/21 02:40:07;;;;;;;38.03;6.03;;;11.20;99.90;;;;;;7288821;19;20224;-78
2023/12/21 02:42:33;;;;;;;27.53;4.97;;;11.20;99.90;;;;;;7289071;19;20198;-78
2023/12/21 02:44:59;;;;;;;26.80;5.60;;;11.10;99.90;;;;;;7289790;19;20259;-78
2023/12/21 02:47:24;;;;;;;23.83;5.23;;;11.20;99.90;;;;;;7288438;19;20519;-79
2023/12/21 02:49:50;;;;;;;30.87;5.57;;;11.10;99.90;;;;;;7288460;19;20249;-78
2023/12/21 02:52:16;;;;;;;31.13;5.67;;;11.20;99.90;;;;;;7310721;19;20183;-79
2023/12/21 02:54:41;;;;;;;29.77;5.13;;;11.20;99.90;;;;;;7285618;19;20256;-79
2023/12/21 02:57:07;;;;;;;33.63;5.33;;;11.20;99.90;;;;;;7288058;19;20572;-79
2023/12/21 02:59:33;;;;;;;26.13;5.13;;;11.20;99.90;;;;;;7288270;19;20289;-79
2023/12/21 03:01:59;;;;;;;30.47;5.57;;;11.30;99.90;;;;;;7287493;19;20209;-79
2023/12/21 03:04:24;;;;;;;27.90;4.83;;;11.30;99.90;;;;;;7289512;19;20671;-79
2023/12/21 03:06:50;;;;;;;29.90;4.63;;;11.40;99.90;;;;;;7286739;19;20191;-79
2023/12/21 03:09:17;;;;;;;30.17;5.07;;;11.40;99.90;;;;;;7309972;19;20695;-78
2023/12/21 03:11:43;;;;;;;31.87;5.47;;;11.30;99.90;;;;;;7283600;19;20198;-79
2023/12/21 03:14:09;;;;;;;30.33;5.30;;;11.40;99.90;;;;;;7286220;19;20260;-79
2023/12/21 03:16:35;;;;;;;29.97;5.03;;;11.40;99.90;;;;;;7288338;19;20579;-78
2023/12/21 03:19:00;;;;;;;27.40;4.47;;;11.50;99.90;;;;;;7284967;19;20199;-78
2023/12/21 03:21:26;;;;;;;22.87;4.43;;;11.50;99.90;;;;;;7286399;19;20199;-78
2023/12/21 03:23:52;;;;;;;30.13;4.97;;;11.50;99.90;;;;;;7286639;19;20231;-78
2023/12/21 03:26:18;;;;;;;30.37;4.50;;;11.50;99.90;;;;;;7299428;19;20229;-78
2023/12/21 03:28:45;;;;;;;30.87;4.50;;;11.50;99.90;;;;;;7306361;19;20184;-78
2023/12/21 03:31:11;;;;;;;26.73;5.47;;;11.60;99.90;;;;;;7287896;19;20615;-79
2023/12/21 03:33:37;;;;;;;30.87;5.10;;;11.70;99.90;;;;;;7286056;19;20193;-78
2023/12/21 03:36:04;;;;;;;27.00;4.30;;;11.70;99.90;;;;;;7286255;19;20187;-78
2023/12/21 03:38:29;;;;;;;31.70;4.60;;;11.60;99.90;;;;;;7286918;19;20202;-78
2023/12/21 03:40:55;;;;;;;24.80;4.67;;;11.60;99.90;;;;;;7285787;19;20235;-78
2023/12/21 03:43:21;;;;;;;29.20;3.77;;;11.60;99.90;;;;;;7286008;19;20747;-79
2023/12/21 03:45:46;;;;;;;30.77;4.60;;;11.70;99.90;;;;;;7306605;19;20540;-79
2023/12/21 03:48:12;;;;;;;27.40;4.57;;;11.70;99.90;;;;;;7285018;19;20181;-79
2023/12/21 03:50:38;;;;;;;23.80;4.23;;;11.70;99.90;;;;;;7283500;19;20202;-78
2023/12/21 03:53:07;;;;;;;26.33;4.53;;;11.70;99.90;;;;;;7284741;19;20259;-78
2023/12/21 03:55:33;;;;;;;26.27;4.53;;;11.70;99.90;;;;;;7283966;19;20532;-79
2023/12/21 03:57:58;;;;;;;26.77;4.63;;;11.70;99.90;;;;;;7285055;19;20211;-78
2023/12/21 04:00:25;;;;;;;28.93;4.50;;;11.70;99.90;;;;;;7285909;19;20197;-78
2023/12/21 04:02:51;;;;;;;32.30;4.60;;;11.60;99.90;;;;;;7285778;19;20714;-78
2023/12/21 04:05:16;;;;;;;21.37;3.77;;;11.60;99.90;;;;;;7306926;19;20222;-79
2023/12/21 04:07:42;;;;;;;34.57;4.73;;;11.60;99.90;;;;;;7285499;19;20184;-78
2023/12/21 04:10:08;;;;;;;30.07;4.90;;;11.70;99.90;;;;;;7284169;19;20200;-78
2023/12/21 04:12:34;;;;;;;28.90;4.33;;;11.70;99.90;;;;;;7285431;19;20187;-78
2023/12/21 04:14:59;;;;;;;28.53;4.50;;;11.70;99.90;;;;;;7284133;19;20557;-79
2023/12/21 04:17:26;;;;;;;25.73;4.60;;;11.70;99.90;;;;;;7286117;19;20808;-78
2023/12/21 04:19:52;;;;;;;33.17;4.97;;;11.70;99.90;;;;;;7284255;19;20192;-78
2023/12/21 04:22:18;;;;;;;30.27;4.07;;;11.70;99.90;;;;;;7294306;19;20565;-78
2023/12/21 04:24:44;;;;;;;28.90;3.90;;;11.70;99.90;;;;;;7306403;19;20203;-78
2023/12/21 04:27:10;;;;;;;32.73;4.40;;;11.80;99.90;;;;;;7283871;19;20200;-78
2023/12/21 04:29:39;;;;;;;26.67;4.37;;;11.90;99.90;;;;;;7283038;19;20195;-78
2023/12/21 04:32:06;;;;;;;23.00;4.13;;;11.80;99.90;;;;;;7284550;19;20219;-78
2023/12/21 04:34:32;;;;;;;29.50;4.30;;;11.80;99.90;;;;;;7280986;19;20192;-78
2023/12/21 04:36:57;;;;;;;21.43;4.47;;;11.80;99.90;;;;;;7283721;19;20199;-78
2023/12/21 04:39:23;;;;;;;31.43;5.10;;;11.80;99.90;;;;;;7283898;19;20305;-78
2023/12/21 04:41:49;;;;;;;26.30;4.23;;;11.90;99.90;;;;;;7293131;19;20188;-78
2023/12/21 04:44:15;;;;;;;24.47;3.77;;;12.00;99.90;;;;;;7305587;19;20197;-78
2023/12/21 04:46:42;;;;;;;25.73;3.93;;;12.00;99.90;;;;;;7282424;19;20263;-78
2023/12/21 04:49:08;;;;;;;27.87;4.33;;;12.00;99.90;;;;;;7283882;19;20292;-78
2023/12/21 04:51:34;;;;;;;27.40;4.37;;;12.10;99.90;;;;;;7284839;19;20677;-78
2023/12/21 04:53:59;;;;;;;26.30;3.60;;;12.10;99.90;;;;;;7283470;19;20221;-78
2023/12/21 04:56:25;;;;;;;31.63;4.07;;;12.20;99.90;;;;;;7281888;19;20188;-78
2023/12/21 04:58:51;;;;;;;27.00;4.33;;;12.10;99.90;;;;;;7279340;19;20687;-78
2023/12/21 05:01:18;;;;;;;28.03;4.00;;;12.10;99.90;;;;;;7304444;19;20648;-78
2023/12/21 05:03:44;;;;;;;28.07;4.30;;;12.10;99.90;;;;;;7284697;19;20546;-78
2023/12/21 05:06:09;;;;;;;22.57;3.90;;;12.10;99.90;;;;;;7283217;19;20189;-78
2023/12/21 05:08:35;;;;;;;28.77;4.17;;;12.10;99.90;;;;;;7283122;19;20185;-78
2023/12/21 05:11:02;;;;;;;26.13;4.30;;;12.10;99.90;;;;;;7283606;19;20559;-78
2023/12/21 05:13:27;;;;;;;26.10;4.43;;;12.00;99.90;;;;;;7283820;19;20185;-78
2023/12/21 05:15:53;;;;;;;27.30;4.03;;;12.00;99.90;;;;;;7283920;19;20213;-78
2023/12/21 05:18:19;;;;;;;24.87;3.93;;;12.00;99.90;;;;;;7287712;19;20202;-78
2023/12/21 05:20:45;;;;;;;28.87;4.27;;;12.00;99.90;;;;;;7304243;19;20188;-79
2023/12/21 05:23:11;;;;;;;26.50;4.53;;;12.00;99.90;;;;;;7283079;19;20660;-78
2023/12/21 05:25:36;;;;;;;23.60;4.40;;;12.00;99.90;;;;;;7278575;19;20683;-78
2023/12/21 05:28:02;;;;;;;20.17;3.93;;;12.00;99.90;;;;;;7283030;19;20639;-79
2023/12/21 05:30:28;;;;;;;29.50;4.60;;;12.00;99.90;;;;;;7282821;19;20714;-78
2023/12/21 05:32:54;;;;;;;27.80;4.10;;;12.00;99.90;;;;;;7279812;19;20195;-78
2023/12/21 05:35:19;;;;;;;19.70;3.47;;;12.10;99.90;;;;;;7286708;19;20753;-79
2023/12/21 05:37:45;;;;;;;24.03;3.93;;;12.00;99.90;;;;;;7304521;19;20184;-79
2023/12/21 05:40:12;;;;;;;21.07;3.77;;;12.00;99.90;;;;;;7281764;19;20177;-78
2023/12/21 05:42:38;;;;;;;23.03;4.20;;;12.10;99.90;;;;;;7280018;19;21885;-78
2023/12/21 05:45:04;;;;;;;21.87;3.80;;;12.10;99.90;;;;;;7282442;19;20192;-78
2023/12/21 05:47:31;;;;;;;21.43;3.60;;;12.00;99.90;;;;;;7282539;19;20656;-78
2023/12/21 05:49:58;;;;;;;22.50;4.00;;;12.00;99.90;;;;;;7282007;19;20531;-79
2023/12/21 05:52:24;;;;;;;21.17;3.67;;;12.00;99.90;;;;;;7282174;19;20206;-79
2023/12/21 05:54:49;;;;;;;26.10;3.30;;;12.00;99.90;;;;;;7285691;19;20181;-79
2023/12/21 05:57:15;;;;;;;23.73;3.87;;;12.00;99.90;;;;;;7303453;19;20204;-79
2023/12/21 05:59:42;;;;;;;18.70;3.53;;;12.00;99.90;;;;;;7279218;19;20189;-79
2023/12/21 06:02:09;;;;;;;20.33;3.33;;;12.00;99.90;;;;;;7279368;19;20202;-79
2023/12/21 06:04:35;;;;;;;23.07;3.47;;;12.00;99.90;;;;;;7281973;19;20908;-80
2023/12/21 06:07:01;;;;;;;21.97;3.90;;;11.90;99.90;;;;;;7280217;19;20193;-80
2023/12/21 06:09:27;;;;;;;24.83;3.10;;;12.00;99.90;;;;;;7279703;19;20198;-79
2023/12/21 06:11:53;;;;;;;23.57;4.00;;;12.00;99.90;;;;;;7282316;19;20201;-79
2023/12/21 06:14:18;;;;;;;20.50;3.97;;;12.10;99.90;;;;;;7297915;19;20666;-78
2023/12/21 06:16:44;;;;;;;19.97;3.17;;;12.10;99.90;;;;;;7292090;19;20775;-77
2023/12/21 06:19:10;;;;;;;23.23;3.67;;;12.10;99.90;;;;;;7279411;19;20195;-78
2023/12/21 06:21:39;;;;;;;23.17;2.80;;;12.10;99.90;;;;;;7280112;19;20206;-78
2023/12/21 06:24:06;;;;;;;24.30;3.90;;;12.10;99.90;;;;;;7279179;19;20256;-80
2023/12/21 06:26:33;;;;;;;18.33;3.03;;;12.10;99.90;;;;;;7280219;19;20604;-79
2023/12/21 06:28:58;;;;;;;18.83;3.10;;;12.10;99.90;;;;;;7279664;19;20251;-77
2023/12/21 06:31:24;;;;;;;22.63;2.83;;;12.00;99.90;;;;;;7279191;19;20677;-78
2023/12/21 06:33:52;;;;;;;22.33;3.13;;;12.00;99.90;;;;;;7280818;19;20269;-78
2023/12/21 06:36:18;;;;;;;18.00;3.27;;;12.00;99.90;;;;;;7300118;19;20194;-77
2023/12/21 06:38:43;;;;;;;16.70;2.90;;;12.10;99.90;;;;;;7280516;19;20664;-78
2023/12/21 06:41:14;;;;;;;20.30;3.07;;;12.10;99.90;;;;;;7279196;19;20194;-78
2023/12/21 06:43:40;;;;;;;19.97;2.90;;;12.10;99.90;;;;;;7280916;19;20241;-79
2023/12/21 06:46:15;;;;;;;19.10;2.87;;;12.20;99.90;;;;;;7282557;19;20188;-78
2023/12/21 06:48:41;;;;;;;16.10;3.33;;;12.20;99.90;;;;;;7271379;19;20228;-78
2023/12/21 06:51:08;;;;;;;19.33;3.40;;;12.20;99.90;;;;;;7286216;19;20192;-79
2023/12/21 06:53:34;;;;;;;18.20;2.80;;;12.20;99.90;;;;;;7283379;19;20262;-78
2023/12/21 06:56:00;;;;;;;15.97;2.77;;;12.20;99.90;;;;;;7286292;19;20201;-79
2023/12/21 06:58:27;;;;;;;20.27;3.17;;;12.30;99.90;;;;;;7286509;19;20206;-80
2023/12/21 07:00:53;;;;;;;14.10;3.00;;;12.30;99.90;;;;;;7286861;19;21179;-78
2023/12/21 07:03:19;;;;;;;18.20;3.23;;;12.40;99.90;;;;;;7299016;19;20192;-78
2023/12/21 07:05:45;;;;;;;19.57;2.80;;;12.30;99.90;;;;;;7306247;19;20185;-79
2023/12/21 07:08:11;;;;;;;16.93;3.50;;;12.30;99.90;;;;;;7286553;19;20216;-79
2023/12/21 07:10:36;;;;;;;15.10;2.73;;;12.30;99.90;;;;;;7286843;19;20205;-79
2023/12/21 07:13:02;;;;;;;21.53;3.63;;;12.30;99.90;;;;;;7284866;19;20680;-79
2023/12/21 07:15:28;;;;;;;13.63;2.57;;;12.30;99.90;;;;;;7285914;19;21075;-80
2023/12/21 07:17:54;;;;;;;15.07;2.63;;;12.30;99.90;;;;;;7287836;19;20645;-80
2023/12/21 07:20:24;;;;;;;11.60;2.40;;;12.20;99.90;;;;;;7286992;19;20196;-80
2023/12/21 07:22:50;;;;;;;16.40;2.37;;;12.20;99.90;;;;;;7286977;19;20196;-80
2023/12/21 07:25:17;;;;;;;13.53;2.00;;;12.30;99.90;;;;;;7309023;19;20268;-79
2023/12/21 07:27:44;;;;;;;14.73;2.40;;;12.30;99.90;;;;;;7285957;19;20787;-80
2023/12/21 07:30:10;;;;;;;17.70;2.40;;;12.20;99.90;;;;;;7284090;19;20182;-80
2023/12/21 07:32:36;;;;;;;13.70;1.90;;;12.30;99.90;;;;;;7286333;19;20911;-80
2023/12/21 07:35:02;;;;;;;17.40;2.50;;;12.30;99.90;;;;;;7285059;19;20191;-79
2023/12/21 07:37:27;;;;;;;13.17;1.57;;;12.30;99.90;;;;;;7285893;19;20191;-80
2023/12/21 07:39:53;;;;;;;12.13;2.10;;;12.20;99.90;;;;;;7285509;19;20184;-79
2023/12/21 07:42:20;;;;;;;15.83;2.43;;;12.20;99.90;;;;;;7288934;19;20689;-80
2023/12/21 07:44:45;;;;;;;16.00;2.10;;;12.20;99.90;;;;;;7307607;19;20205;-79
2023/12/21 07:47:11;;;;;;;14.57;2.23;;;12.20;99.90;;;;;;7284473;19;20606;-80
2023/12/21 07:49:37;;;;;;;15.33;1.90;;;12.20;99.90;;;;;;7283999;19;20193;-80
2023/12/21 07:52:03;;;;;;;12.27;1.97;;;12.20;99.90;;;;;;7284817;19;20694;-80
2023/12/21 07:54:29;;;;;;;14.37;2.40;;;12.30;99.90;;;;;;7284435;19;20568;-80
2023/12/21 07:56:54;;;;;;;13.13;2.07;;;12.30;99.90;;;;;;7285394;19;20206;-80
2023/12/21 07:59:20;;;;;;;14.90;2.13;;;12.30;99.90;;;;;;7285777;19;20762;-80
2023/12/21 08:01:46;;;;;;;13.93;2.43;;;12.30;99.90;;;;;;7306578;19;20210;-80
2023/12/21 08:04:12;;;;;;;10.77;2.17;;;12.40;99.90;;;;;;7285737;19;20194;-80
2023/12/21 08:06:39;;;;;;;15.00;2.33;;;12.40;99.90;;;;;;7281903;19;20630;-80
2023/12/21 08:09:05;;;;;;;10.40;1.90;;;12.40;99.90;;;;;;7284893;19;20195;-79
2023/12/21 08:11:31;;;;;;;13.07;2.33;;;12.40;99.90;;;;;;7286113;19;20663;-79
2023/12/21 08:13:56;;;;;;;10.77;1.70;;;12.40;99.90;;;;;;7285430;19;20187;-79
2023/12/21 08:16:22;;;;;;;11.43;1.67;;;12.40;99.90;;;;;;7282912;19;20598;-80
2023/12/21 08:18:48;;;;;;;8.00;1.73;;;12.40;99.90;;;;;;7307775;19;20296;-79
2023/12/21 08:21:14;;;;;;;12.43;2.23;;;12.30;99.90;;;;;;7282188;19;20188;-79
2023/12/21 08:23:39;;;;;;;11.47;2.07;;;12.20;99.90;;;;;;7283247;19;20183;-79
2023/12/21 08:26:06;;;;;;;12.27;1.77;;;12.20;99.90;;;;;;7282729;19;20223;-79
2023/12/21 08:28:33;;;;;;;12.83;1.90;;;12.20;99.90;;;;;;7283429;19;20196;-79
2023/12/21 08:31:00;;;;;;;13.03;1.93;;;12.20;99.90;;;;;;7283386;19;20272;-80
2023/12/21 08:33:25;;;;;;;13.90;2.37;;;12.30;99.90;;;;;;7282105;19;20263;-80
2023/12/21 08:35:52;;;;;;;12.10;2.00;;;12.40;99.90;;;;;;7281758;19;20192;-80
2023/12/21 08:38:18;;;;;;;11.17;1.90;;;12.30;99.90;;;;;;7306465;19;20202;-79
2023/12/21 08:40:45;;;;;;;9.30;1.63;;;12.30;99.90;;;;;;7283594;19;20982;-79
2023/12/21 08:43:11;;;;;;;14.43;2.30;;;12.30;99.90;;;;;;7280800;19;20193;-80
2023/12/21 08:45:38;;;;;;;13.60;2.00;;;12.30;99.90;;;;;;7283250;19;20740;-79
2023/12/21 08:48:05;;;;;;;12.30;1.90;;;12.30;99.90;;;;;;7281096;19;20188;-79
2023/12/21 08:50:30;;;;;;;13.47;1.70;;;12.40;99.90;;;;;;7281644;19;20189;-80
2023/12/21 08:52:59;;;;;;;11.83;1.80;;;12.40;99.90;;;;;;7282610;19;20181;-79
2023/12/21 08:55:25;;;;;;;13.13;2.07;;;12.40;99.90;;;;;;7282208;19;20208;-79
2023/12/21 08:57:50;;;;;;;13.90;2.33;;;12.40;99.90;;;;;;7284256;19;20640;-79
2023/12/21 09:00:17;;;;;;;11.63;2.30;;;12.30;99.90;;;;;;7303863;19;20181;-79
2023/12/21 09:02:42;;;;;;;11.23;1.80;;;12.30;99.90;;;;;;7281552;19;20306;-79
2023/12/21 09:05:12;;;;;;;8.17;2.00;;;12.30;99.90;;;;;;7282503;19;21810;-79
2023/12/21 09:07:39;;;;;;;11.00;2.10;;;12.30;99.90;;;;;;7282023;19;20218;-79
2023/12/21 09:10:06;;;;;;;14.07;2.17;;;12.30;99.90;;;;;;7279926;19;20199;-79
2023/12/21 09:12:32;;;;;;;9.10;1.57;;;12.30;99.90;;;;;;7281590;19;20195;-80
2023/12/21 09:14:58;;;;;;;10.27;1.87;;;12.40;99.90;;;;;;7281756;19;20215;-79
2023/12/21 09:17:23;;;;;;;11.80;2.23;;;12.50;99.90;;;;;;7281668;19;20196;-78
2023/12/21 09:19:49;;;;;;;7.70;1.90;;;12.40;99.90;;;;;;7296521;19;20181;-78
2023/12/21 09:22:15;;;;;;;11.30;1.83;;;12.50;99.90;;;;;;7294155;19;20342;-78
2023/12/21 09:24:40;;;;;;;11.20;1.60;;;12.60;99.90;;;;;;7280629;19;20294;-79
2023/12/21 09:27:06;;;;;;;13.83;2.10;;;12.60;99.90;;;;;;7281745;19;20196;-80
2023/12/21 09:29:32;;;;;;;7.57;1.40;;;12.60;99.90;;;;;;7280411;19;20184;-80
2023/12/21 09:31:59;;;;;;;14.23;2.03;;;12.70;99.90;;;;;;7280434;19;20327;-79
2023/12/21 09:34:25;;;;;;;11.97;2.57;;;12.70;99.90;;;;;;7275066;19;20200;-78
2023/12/21 09:36:53;;;;;;;13.60;2.63;;;12.70;99.90;;;;;;7278177;19;20193;-79
2023/12/21 09:39:19;;;;;;;14.93;2.80;;;12.70;99.90;;;;;;7298978;19;20334;-79
2023/12/21 09:41:45;;;;;;;12.83;2.03;;;12.70;99.90;;;;;;7279789;19;20620;-78
2023/12/21 09:44:16;;;;;;;9.20;1.87;;;12.70;99.90;;;;;;7281325;19;20201;-79
2023/12/21 09:46:44;;;;;;;10.30;2.13;;;12.70;99.90;;;;;;7280334;19;20196;-79
2023/12/21 09:49:13;;;;;;;11.00;2.07;;;12.60;99.90;;;;;;7280650;19;20266;-78
2023/12/21 09:51:38;;;;;;;9.20;1.90;;;12.60;99.90;;;;;;7283155;19;20683;-80
2023/12/21 09:54:07;;;;;;;8.33;1.67;;;12.70;99.90;;;;;;7281568;19;20200;-80
2023/12/21 09:56:33;;;;;;;8.43;1.80;;;12.70;99.90;;;;;;7282155;19;20226;-80
2023/12/21 09:59:01;;;;;;;10.83;1.57;;;12.80;99.90;;;;;;7281459;19;20210;-80
2023/12/21 10:01:27;;;;;;;10.17;2.10;;;12.90;99.90;;;;;;7281005;19;20193;-79
2023/12/21 10:03:53;;;;;;;12.03;1.93;;;13.00;99.90;;;;;;7281957;19;20210;-79
2023/12/21 10:06:19;;;;;;;10.80;2.03;;;13.00;99.90;;;;;;7302986;19;20189;-79
2023/12/21 10:08:44;;;;;;;12.90;2.30;;;13.00;99.90;;;;;;7280228;19;20726;-79
2023/12/21 10:11:10;;;;;;;11.57;1.80;;;13.00;99.90;;;;;;7281505;19;20206;-79
2023/12/21 10:13:37;;;;;;;8.00;1.73;;;13.00;99.90;;;;;;7279074;19;20196;-80
2023/12/21 10:16:03;;;;;;;8.83;1.70;;;13.00;99.90;;;;;;7280877;19;20185;-80
2023/12/21 10:18:30;;;;;;;10.27;2.00;;;13.00;99.90;;;;;;7280941;19;20272;-79
2023/12/21 10:20:56;;;;;;;9.20;1.60;;;12.90;99.90;;;;;;7283003;19;20626;-80
2023/12/21 10:23:24;;;;;;;11.73;2.07;;;13.00;99.90;;;;;;7285692;19;20709;-79
2023/12/21 10:25:50;;;;;;;12.63;1.77;;;13.10;99.90;;;;;;7300240;19;20196;-79
2023/12/21 10:28:15;;;;;;;9.10;1.80;;;13.10;99.90;;;;;;7302990;19;20244;-78
2023/12/21 10:30:41;;;;;;;7.77;1.90;;;13.10;99.90;;;;;;7286980;19;20204;-78
2023/12/21 10:33:12;;;;;;;8.90;1.40;;;13.10;99.90;;;;;;7288456;19;20197;-78
2023/12/21 10:35:38;;;;;;;7.53;1.20;;;13.10;99.90;;;;;;7285572;19;20221;-79
2023/12/21 10:38:04;;;;;;;8.57;1.50;;;12.90;99.90;;;;;;7288834;19;20188;-79
2023/12/21 10:40:30;;;;;;;9.13;2.00;;;12.90;99.90;;;;;;7286314;19;20189;-79
2023/12/21 10:42:56;;;;;;;9.77;1.53;;;12.90;99.90;;;;;;7285949;19;20202;-79
2023/12/21 10:45:22;;;;;;;8.83;1.60;;;12.90;99.90;;;;;;7288115;19;20570;-79
2023/12/21 10:47:52;;;;;;;8.63;1.90;;;13.00;99.90;;;;;;7309217;19;20189;-79
2023/12/21 10:50:19;;;;;;;11.83;1.70;;;13.00;99.90;;;;;;7286570;19;20301;-79
2023/12/21 10:52:46;;;;;;;16.30;1.93;;;13.00;99.90;;;;;;7288356;19;20193;-79
2023/12/21 10:55:16;;;;;;;16.37;1.93;;;13.10;99.90;;;;;;7284997;19;20190;-79
2023/12/21 10:57:44;;;;;;;11.00;1.43;;;13.00;99.90;;;;;;7288796;19;20280;-79
2023/12/21 11:00:17;;;;;;;12.40;1.63;;;13.10;99.90;;;;;;7286947;19;20221;-79
2023/12/21 11:02:45;;;;;;;13.43;1.60;;;13.20;99.90;;;;;;7287528;19;20288;-79
2023/12/21 11:05:19;;;;;;;11.53;2.13;;;13.10;99.90;;;;;;7284329;19;20630;-79
2023/12/21 11:07:48;;;;;;;9.57;1.43;;;13.10;99.90;;;;;;7287818;19;20749;-79
2023/12/21 11:10:14;;;;;;;8.77;1.53;;;13.20;99.90;;;;;;7286158;19;20656;-80
2023/12/21 11:12:40;;;;;;;10.13;1.73;;;13.30;99.90;;;;;;7286933;19;20519;-80
2023/12/21 11:15:06;;;;;;;10.53;1.60;;;13.30;99.90;;;;;;7285047;19;20200;-79
2023/12/21 11:17:33;;;;;;;11.43;1.63;;;13.30;99.90;;;;;;7286557;19;20192;-79
2023/12/21 11:20:00;;;;;;;11.03;1.40;;;13.30;99.90;;;;;;7286104;19;20701;-79
2023/12/21 11:22:27;;;;;;;7.80;1.53;;;13.40;99.90;;;;;;7286589;19;20191;-80
2023/12/21 11:25:04;;;;;;;9.17;1.40;;;13.30;99.90;;;;;;7285204;19;20211;-80
2023/12/21 11:27:33;;;;;;;12.93;1.80;;;13.40;99.90;;;;;;7284799;19;20193;-80
2023/12/21 11:30:12;;;;;;;9.10;1.30;;;13.40;99.90;;;;;;7285011;19;20198;-80
2023/12/21 11:32:42;;;;;;;12.67;1.30;;;13.40;99.90;;;;;;7283725;19;20199;-79
2023/12/21 11:35:24;;;;;;;8.23;1.27;;;13.40;99.90;;;;;;7285296;19;20198;-79
2023/12/21 11:37:56;;;;;;;11.93;1.50;;;13.40;99.90;;;;;;7275275;19;20210;-79
2023/12/21 11:40:24;;;;;;;9.60;1.17;;;13.50;99.90;;;;;;7285676;19;20199;-79
2023/12/21 11:42:54;;;;;;;6.90;1.33;;;13.50;99.90;;;;;;7298981;19;20220;-79
2023/12/21 11:45:28;;;;;;;9.57;1.00;;;13.30;99.90;;;;;;7296922;19;20196;-80
2023/12/21 11:47:57;;;;;;;5.33;1.00;;;13.30;99.90;;;;;;7283506;19;20195;-80
2023/12/21 11:50:30;;;;;;;8.57;1.13;;;13.10;99.90;;;;;;7284613;19;20731;-79
2023/12/21 11:53:07;;;;;;;8.00;1.17;;;13.00;99.90;;;;;;7285409;19;20288;-78
2023/12/21 11:55:41;;;;;;;9.43;1.30;;;13.00;99.90;;;;;;7281900;19;20721;-78
2023/12/21 11:58:30;;;;;;;6.17;1.30;;;12.90;99.90;;;;;;7285589;19;20199;-79
2023/12/21 12:00:58;;;;;;;6.17;0.90;;;12.90;99.90;;;;;;7182959;19;2004651;-80
2023/12/21 12:03:28;;;;;;;5.80;1.30;;;12.90;99.90;;;;;;7284744;19;20184;-79
2023/12/21 12:06:00;;;;;;;6.83;1.03;;;12.90;99.90;;;;;;7283807;19;20192;-78
2023/12/21 12:08:26;;;;;;;8.03;1.27;;;12.80;99.90;;;;;;7284255;19;20660;-79
2023/12/21 12:10:53;;;;;;;10.90;1.20;;;12.90;99.90;;;;;;7286454;19;20197;-79
2023/12/21 12:13:21;;;;;;;7.90;1.60;;;13.00;99.90;;;;;;7306459;19;20186;-79
2023/12/21 12:15:48;;;;;;;8.90;1.30;;;13.00;99.90;;;;;;7284396;19;20578;-79
2023/12/21 12:18:18;;;;;;;9.03;1.77;;;13.00;99.90;;;;;;7283976;19;20278;-79
2023/12/21 12:20:45;;;;;;;9.87;1.63;;;12.90;99.90;;;;;;7284422;19;20185;-79
2023/12/21 12:23:12;;;;;;;11.13;1.50;;;12.90;99.90;;;;;;7284799;19;20202;-79
2023/12/21 12:25:38;;;;;;;9.37;1.63;;;13.00;99.90;;;;;;7286328;19;20231;-79
2023/12/21 12:28:04;;;;;;;9.70;1.37;;;13.10;99.90;;;;;;7283070;19;20660;-78
2023/12/21 12:30:31;;;;;;;7.97;1.63;;;13.20;99.90;;;;;;7284045;19;20196;-79
2023/12/21 12:33:02;;;;;;;11.57;1.57;;;13.30;99.90;;;;;;7284680;19;20217;-80
2023/12/21 12:35:30;;;;;;;10.53;1.50;;;13.20;99.90;;;;;;7282525;19;20196;-79